Time;durP1;ratioP1;P1;durP2;ratioP2;P2;SDS_P1;SDS_P2;PMS_P1;PMS_P2;Temp;Humidity;BMP_temperature;BMP_pressure;BME280_temperature;BME280_humidity;BME280_pressure;Samples;Min_cycle;Max_cycle;Signal;HPM_P1;HPM_P2
2022/06/17 00:02:10;;;;;;;0.10;0.10;;;;;;;;;;5067208;28;20431;-67
2022/06/17 00:04:37;;;;;;;0.00;0.00;;;;;;;;;;5062259;28;20226;-67
2022/06/17 00:07:06;;;;;;;0.00;0.00;;;;;;;;;;5068429;28;20242;-67
2022/06/17 00:09:34;;;;;;;0.00;0.00;;;;;;;;;;5066165;28;20228;-68
2022/06/17 00:12:00;;;;;;;0.00;0.00;;;;;;;;;;5070380;28;20248;-68
2022/06/17 00:14:31;;;;;;;0.00;0.00;;;;;;;;;;5066744;28;20229;-67
2022/06/17 00:16:57;;;;;;;0.00;0.00;;;;;;;;;;5070236;28;20559;-67
2022/06/17 00:19:23;;;;;;;0.00;0.00;;;;;;;;;;5066957;28;20423;-68
2022/06/17 00:21:51;;;;;;;0.00;0.00;;;;;;;;;;5068679;28;20252;-68
2022/06/17 00:24:22;;;;;;;0.00;0.00;;;;;;;;;;5067515;28;20518;-69
2022/06/17 00:26:48;;;;;;;0.00;0.00;;;;;;;;;;5068860;28;20623;-67
2022/06/17 00:29:16;;;;;;;0.00;0.00;;;;;;;;;;5067512;28;20231;-67
2022/06/17 00:31:42;;;;;;;0.00;0.00;;;;;;;;;;5067629;28;20245;-68
2022/06/17 00:34:09;;;;;;;0.00;0.00;;;;;;;;;;5068521;28;20239;-68
2022/06/17 00:36:35;;;;;;;0.00;0.00;;;;;;;;;;5066759;28;20240;-67
2022/06/17 00:39:02;;;;;;;0.00;0.00;;;;;;;;;;5069427;28;20391;-67
2022/06/17 00:41:32;;;;;;;0.00;0.00;;;;;;;;;;5065509;28;20248;-67
2022/06/17 00:43:59;;;;;;;0.00;0.00;;;;;;;;;;5069712;28;20226;-67
2022/06/17 00:46:28;;;;;;;0.00;0.00;;;;;;;;;;5065401;28;20242;-68
2022/06/17 00:49:00;;;;;;;0.00;0.00;;;;;;;;;;5069962;28;20277;-66
2022/06/17 00:51:28;;;;;;;0.00;0.00;;;;;;;;;;5065377;28;20248;-66
2022/06/17 00:53:58;;;;;;;0.00;0.00;;;;;;;;;;5069797;28;20278;-66
2022/06/17 00:56:28;;;;;;;0.00;0.00;;;;;;;;;;5065111;28;20339;-69
2022/06/17 00:58:57;;;;;;;0.00;0.00;;;;;;;;;;5070103;28;20228;-67
2022/06/17 01:01:24;;;;;;;0.00;0.00;;;;;;;;;;5064885;28;20240;-68
2022/06/17 01:03:51;;;;;;;0.00;0.00;;;;;;;;;;5070172;28;20419;-67
2022/06/17 01:06:20;;;;;;;0.00;0.00;;;;;;;;;;5064328;28;20249;-64
2022/06/17 01:11:33;;;;;;;0.00;0.00;;;;;;;;;;5065927;28;20268;-65
2022/06/17 01:14:01;;;;;;;0.00;0.00;;;;;;;;;;5068970;28;20273;-65
2022/06/17 01:16:31;;;;;;;0.00;0.00;;;;;;;;;;5065489;28;20241;-64
2022/06/17 01:18:58;;;;;;;0.00;0.00;;;;;;;;;;5068776;28;20229;-64
2022/06/17 01:21:29;;;;;;;0.00;0.00;;;;;;;;;;5064912;28;20244;-64
2022/06/17 01:23:56;;;;;;;0.00;0.00;;;;;;;;;;5069525;28;20275;-65
2022/06/17 01:26:23;;;;;;;0.00;0.00;;;;;;;;;;5064639;28;20240;-65
2022/06/17 01:28:49;;;;;;;0.00;0.00;;;;;;;;;;5069700;28;20233;-65
2022/06/17 01:31:16;;;;;;;0.00;0.00;;;;;;;;;;5063330;28;20258;-66
2022/06/17 01:33:43;;;;;;;0.00;0.00;;;;;;;;;;5070716;28;20274;-64
2022/06/17 01:36:12;;;;;;;0.10;0.10;;;;;;;;;;5062664;28;20413;-64
2022/06/17 01:38:40;;;;;;;0.08;0.08;;;;;;;;;;5071130;28;20202;-65
2022/06/17 01:41:09;;;;;;;0.10;0.10;;;;;;;;;;5061956;28;20251;-64
2022/06/17 01:43:38;;;;;;;0.00;0.00;;;;;;;;;;5071644;28;20280;-64
2022/06/17 01:46:07;;;;;;;0.00;0.00;;;;;;;;;;5061656;28;20312;-65
2022/06/17 01:48:36;;;;;;;0.00;0.00;;;;;;;;;;5071715;28;20560;-65
2022/06/17 01:51:03;;;;;;;0.00;0.00;;;;;;;;;;5061145;28;20243;-64
2022/06/17 01:53:31;;;;;;;0.00;0.00;;;;;;;;;;5071949;28;20206;-64
2022/06/17 01:55:59;;;;;;;0.00;0.00;;;;;;;;;;5061114;28;20495;-64
2022/06/17 01:58:29;;;;;;;0.00;0.00;;;;;;;;;;5072622;28;20444;-64
2022/06/17 02:00:56;;;;;;;0.00;0.00;;;;;;;;;;5060726;28;20445;-66
2022/06/17 02:03:24;;;;;;;0.00;0.00;;;;;;;;;;5072685;28;20206;-65
2022/06/17 02:05:53;;;;;;;0.10;0.10;;;;;;;;;;5059901;28;20239;-64
2022/06/17 02:08:19;;;;;;;0.00;0.00;;;;;;;;;;5072649;28;20296;-64
2022/06/17 02:10:47;;;;;;;0.10;0.10;;;;;;;;;;5058610;28;20588;-64
2022/06/17 02:13:15;;;;;;;0.00;0.00;;;;;;;;;;5073510;28;20485;-65
2022/06/17 02:15:43;;;;;;;0.10;0.10;;;;;;;;;;5058139;28;20250;-64
2022/06/17 02:18:12;;;;;;;0.00;0.00;;;;;;;;;;5074376;28;20232;-65
2022/06/17 02:20:39;;;;;;;0.00;0.00;;;;;;;;;;5057433;28;20237;-64
2022/06/17 02:23:05;;;;;;;0.00;0.00;;;;;;;;;;5074831;28;20205;-63
2022/06/17 02:25:34;;;;;;;0.08;0.08;;;;;;;;;;5056938;28;20244;-64
2022/06/17 02:28:01;;;;;;;0.00;0.00;;;;;;;;;;5074814;28;20563;-64
2022/06/17 02:30:29;;;;;;;0.05;0.05;;;;;;;;;;5055815;28;20251;-64
2022/06/17 02:32:59;;;;;;;0.00;0.00;;;;;;;;;;5075385;28;20195;-64
2022/06/17 02:35:29;;;;;;;0.00;0.00;;;;;;;;;;5055850;28;20260;-65
2022/06/17 02:37:56;;;;;;;0.08;0.08;;;;;;;;;;5075447;28;20279;-64
2022/06/17 02:40:29;;;;;;;0.00;0.00;;;;;;;;;;5055849;28;20378;-65
2022/06/17 02:42:56;;;;;;;0.10;0.10;;;;;;;;;;5075533;28;20198;-65
2022/06/17 02:45:24;;;;;;;0.10;0.10;;;;;;;;;;5055593;28;20502;-65
2022/06/17 02:47:51;;;;;;;0.00;0.00;;;;;;;;;;5076342;28;20485;-64
2022/06/17 02:50:20;;;;;;;0.00;0.00;;;;;;;;;;5054226;28;20229;-66
2022/06/17 02:52:46;;;;;;;0.03;0.03;;;;;;;;;;5077347;28;20254;-65
2022/06/17 02:55:14;;;;;;;0.00;0.00;;;;;;;;;;5054113;28;20217;-65
2022/06/17 02:57:41;;;;;;;0.00;0.00;;;;;;;;;;5077348;28;20263;-66
2022/06/17 03:00:11;;;;;;;0.10;0.10;;;;;;;;;;5052792;28;20433;-65
2022/06/17 03:02:39;;;;;;;0.00;0.00;;;;;;;;;;5077445;28;20194;-64
2022/06/17 03:05:11;;;;;;;0.00;0.00;;;;;;;;;;5056289;28;20254;-67
2022/06/17 03:07:39;;;;;;;0.10;0.10;;;;;;;;;;5077451;28;20311;-67
2022/06/17 03:10:16;;;;;;;;;;;;;;;;;;;;;
2022/06/17 03:12:57;;;;;;;0.00;0.00;;;;;;;;;;5037718;28;20223;-67
2022/06/17 03:15:24;;;;;;;0.08;0.08;;;;;;;;;;5050539;28;20433;-67
2022/06/17 03:17:50;;;;;;;0.00;0.00;;;;;;;;;;5060622;28;20213;-67
2022/06/17 03:20:19;;;;;;;0.00;0.00;;;;;;;;;;5050569;28;20526;-66
2022/06/17 03:22:48;;;;;;;0.00;0.00;;;;;;;;;;5060753;28;20195;-68
2022/06/17 03:25:18;;;;;;;0.00;0.00;;;;;;;;;;5050495;28;20228;-67
2022/06/17 03:27:48;;;;;;;0.10;0.10;;;;;;;;;;5060580;28;20385;-68
2022/06/17 03:30:17;;;;;;;0.00;0.00;;;;;;;;;;5052097;28;20230;-67
2022/06/17 03:32:46;;;;;;;0.10;0.10;;;;;;;;;;5076755;28;20216;-67
2022/06/17 03:35:16;;;;;;;0.03;0.03;;;;;;;;;;5053558;28;20212;-67
2022/06/17 03:37:47;;;;;;;0.10;0.10;;;;;;;;;;5076571;28;20207;-66
2022/06/17 03:40:16;;;;;;;0.22;0.22;;;;;;;;;;5053674;28;20200;-66
2022/06/17 03:42:46;;;;;;;0.00;0.00;;;;;;;;;;5075403;28;20507;-65
2022/06/17 03:45:15;;;;;;;0.00;0.00;;;;;;;;;;5053310;28;20454;-64
2022/06/17 03:47:45;;;;;;;0.10;0.10;;;;;;;;;;5076916;28;20197;-66
2022/06/17 03:50:18;;;;;;;0.05;0.05;;;;;;;;;;5053067;28;20535;-66
2022/06/17 03:52:48;;;;;;;0.00;0.00;;;;;;;;;;5076744;28;20229;-65
2022/06/17 03:55:16;;;;;;;0.03;0.03;;;;;;;;;;5052534;28;20222;-65
2022/06/17 03:57:44;;;;;;;0.00;0.00;;;;;;;;;;5076968;28;20192;-65
2022/06/17 04:00:15;;;;;;;0.08;0.08;;;;;;;;;;5059435;28;20201;-65
2022/06/17 04:02:42;;;;;;;0.00;0.00;;;;;;;;;;5076908;28;20273;-66
2022/06/17 04:05:09;;;;;;;0.10;0.10;;;;;;;;;;5060880;28;20205;-66
2022/06/17 04:07:36;;;;;;;0.00;0.00;;;;;;;;;;5077452;28;20226;-65
2022/06/17 04:10:02;;;;;;;0.10;0.10;;;;;;;;;;5062250;28;20220;-64
2022/06/17 04:12:30;;;;;;;0.00;0.00;;;;;;;;;;5067586;28;20260;-65
2022/06/17 04:14:59;;;;;;;0.03;0.03;;;;;;;;;;5062109;28;20204;-66
2022/06/17 04:17:28;;;;;;;0.08;0.08;;;;;;;;;;5067333;28;20243;-65
2022/06/17 04:20:11;;;;;;;0.00;0.00;;;;;;;;;;5062660;28;20500;-67
2022/06/17 04:22:37;;;;;;;0.08;0.08;;;;;;;;;;5034021;28;20244;-65
2022/06/17 04:25:06;;;;;;;0.10;0.10;;;;;;;;;;5063028;28;20553;-66
2022/06/17 04:30:17;;;;;;;0.00;0.00;;;;;;;;;;5052514;28;20235;-65
2022/06/17 04:32:43;;;;;;;0.10;0.10;;;;;;;;;;5076102;28;20185;-65
2022/06/17 04:35:12;;;;;;;0.00;0.00;;;;;;;;;;5052724;28;20500;-69
2022/06/17 04:37:40;;;;;;;0.10;0.10;;;;;;;;;;5076587;28;20296;-67
2022/06/17 04:40:10;;;;;;;0.00;0.00;;;;;;;;;;5054026;28;20267;-67
2022/06/17 04:42:40;;;;;;;0.10;0.10;;;;;;;;;;5076812;28;20216;-67
2022/06/17 04:45:17;;;;;;;0.10;0.10;;;;;;;;;;5057085;28;20211;-67
2022/06/17 04:47:44;;;;;;;0.00;0.00;;;;;;;;;;5062094;28;20192;-67
2022/06/17 04:50:11;;;;;;;0.00;0.00;;;;;;;;;;5052632;28;20437;-67
2022/06/17 04:52:41;;;;;;;0.00;0.00;;;;;;;;;;5076851;28;20197;-66
2022/06/17 04:55:11;;;;;;;0.00;0.00;;;;;;;;;;5055386;28;20228;-67
2022/06/17 04:57:39;;;;;;;0.10;0.10;;;;;;;;;;5080125;28;20211;-67
2022/06/17 05:00:07;;;;;;;0.10;0.10;;;;;;;;;;5061951;28;20527;-67
2022/06/17 05:02:34;;;;;;;0.00;0.00;;;;;;;;;;5080424;28;20214;-68
2022/06/17 05:05:01;;;;;;;0.00;0.00;;;;;;;;;;5065272;28;20208;-68
2022/06/17 05:07:30;;;;;;;0.03;0.03;;;;;;;;;;5070158;28;20273;-67
2022/06/17 05:09:59;;;;;;;0.00;0.00;;;;;;;;;;5065130;28;20239;-67
2022/06/17 05:12:27;;;;;;;0.10;0.10;;;;;;;;;;5070588;28;20240;-68
2022/06/17 05:14:58;;;;;;;0.10;0.10;;;;;;;;;;5065305;28;20211;-67
2022/06/17 05:17:24;;;;;;;0.00;0.00;;;;;;;;;;5070222;28;20458;-68
2022/06/17 05:19:53;;;;;;;0.08;0.08;;;;;;;;;;5065264;28;20200;-67
2022/06/17 05:22:22;;;;;;;0.00;0.00;;;;;;;;;;5069898;28;20461;-67
2022/06/17 05:24:49;;;;;;;0.00;0.00;;;;;;;;;;5064985;28;20266;-68
2022/06/17 05:27:15;;;;;;;0.00;0.00;;;;;;;;;;5069868;28;20552;-68
2022/06/17 05:29:41;;;;;;;0.10;0.10;;;;;;;;;;5065165;28;20314;-67
2022/06/17 05:32:13;;;;;;;0.00;0.00;;;;;;;;;;5070199;28;20303;-67
2022/06/17 05:34:39;;;;;;;0.10;0.10;;;;;;;;;;5064928;28;20208;-67
2022/06/17 05:37:05;;;;;;;0.00;0.00;;;;;;;;;;5069838;28;20326;-67
2022/06/17 05:39:32;;;;;;;0.03;0.03;;;;;;;;;;5065007;28;20466;-67
2022/06/17 05:41:58;;;;;;;0.10;0.10;;;;;;;;;;5069114;28;20245;-67
2022/06/17 05:44:24;;;;;;;0.05;0.05;;;;;;;;;;5065264;28;20236;-68
2022/06/17 05:46:51;;;;;;;0.00;0.00;;;;;;;;;;5067633;28;20244;-67
2022/06/17 05:49:18;;;;;;;0.00;0.00;;;;;;;;;;5066249;28;20207;-67
2022/06/17 05:51:45;;;;;;;0.00;0.00;;;;;;;;;;5067067;28;20243;-67
2022/06/17 05:54:11;;;;;;;0.00;0.00;;;;;;;;;;5067008;28;20205;-68
2022/06/17 05:56:37;;;;;;;0.00;0.00;;;;;;;;;;5065913;28;20247;-68
2022/06/17 05:59:04;;;;;;;0.00;0.00;;;;;;;;;;5067397;28;20409;-67
2022/06/17 06:01:30;;;;;;;0.05;0.05;;;;;;;;;;5064324;28;20310;-67
2022/06/17 06:03:56;;;;;;;0.00;0.00;;;;;;;;;;5068282;28;20212;-67
2022/06/17 06:06:24;;;;;;;0.10;0.10;;;;;;;;;;5063411;28;20239;-68
2022/06/17 06:08:51;;;;;;;0.00;0.00;;;;;;;;;;5069449;28;20209;-67
2022/06/17 06:11:17;;;;;;;0.10;0.10;;;;;;;;;;5062572;28;20246;-68
2022/06/17 06:13:44;;;;;;;0.00;0.00;;;;;;;;;;5069636;28;20211;-67
2022/06/17 06:16:10;;;;;;;0.03;0.03;;;;;;;;;;5061742;28;20633;-67
2022/06/17 06:18:39;;;;;;;0.10;0.10;;;;;;;;;;5070868;28;20442;-68
2022/06/17 06:21:05;;;;;;;0.00;0.00;;;;;;;;;;5060915;28;20258;-67
2022/06/17 06:23:33;;;;;;;0.10;0.10;;;;;;;;;;5070877;28;20236;-67
2022/06/17 06:26:00;;;;;;;0.00;0.00;;;;;;;;;;5060248;28;20327;-66
2022/06/17 06:28:27;;;;;;;0.00;0.00;;;;;;;;;;5071430;28;20263;-69
2022/06/17 06:30:55;;;;;;;0.00;0.00;;;;;;;;;;5059244;28;20240;-67
2022/06/17 06:33:21;;;;;;;0.00;0.00;;;;;;;;;;5072000;28;20444;-66
2022/06/17 06:35:48;;;;;;;0.10;0.10;;;;;;;;;;5058583;28;20311;-68
2022/06/17 06:38:14;;;;;;;0.00;0.00;;;;;;;;;;5072969;28;20273;-67
2022/06/17 06:40:42;;;;;;;0.00;0.00;;;;;;;;;;5057604;28;20240;-68
2022/06/17 06:43:12;;;;;;;0.00;0.00;;;;;;;;;;5073472;28;20240;-68
2022/06/17 06:45:38;;;;;;;0.10;0.10;;;;;;;;;;5057044;28;20319;-67
2022/06/17 06:48:07;;;;;;;0.00;0.00;;;;;;;;;;5073845;28;20213;-66
2022/06/17 06:50:34;;;;;;;0.00;0.00;;;;;;;;;;5056310;28;20302;-66
2022/06/17 06:53:00;;;;;;;0.00;0.00;;;;;;;;;;5073989;28;20275;-66
2022/06/17 06:55:27;;;;;;;0.00;0.00;;;;;;;;;;5055539;28;20252;-67
2022/06/17 06:57:56;;;;;;;0.10;0.10;;;;;;;;;;5075482;28;20276;-68
2022/06/17 07:00:24;;;;;;;0.08;0.08;;;;;;;;;;5054961;28;20222;-66
2022/06/17 07:02:51;;;;;;;0.30;0.30;;;;;;;;;;5076066;28;20217;-68
2022/06/17 07:05:17;;;;;;;0.00;0.00;;;;;;;;;;5054030;28;20211;-66
2022/06/17 07:07:44;;;;;;;0.00;0.00;;;;;;;;;;5076395;28;20264;-67
2022/06/17 07:10:12;;;;;;;0.00;0.00;;;;;;;;;;5053373;28;20257;-66
2022/06/17 07:12:38;;;;;;;0.00;0.00;;;;;;;;;;5077490;28;20203;-67
2022/06/17 07:15:06;;;;;;;0.00;0.00;;;;;;;;;;5061867;28;20205;-67
2022/06/17 07:17:32;;;;;;;0.00;0.00;;;;;;;;;;5077881;28;20395;-68
2022/06/17 07:19:59;;;;;;;0.00;0.00;;;;;;;;;;5062799;28;20214;-68
2022/06/17 07:22:25;;;;;;;0.05;0.05;;;;;;;;;;5067944;28;20447;-68
2022/06/17 07:24:51;;;;;;;0.00;0.00;;;;;;;;;;5062867;28;20211;-67
2022/06/17 07:27:18;;;;;;;0.00;0.00;;;;;;;;;;5067702;28;20299;-68
2022/06/17 07:29:44;;;;;;;0.00;0.00;;;;;;;;;;5062284;28;20459;-67
2022/06/17 07:32:12;;;;;;;0.08;0.08;;;;;;;;;;5068034;28;20249;-67
2022/06/17 07:34:38;;;;;;;0.00;0.00;;;;;;;;;;5062612;28;20211;-67
2022/06/17 07:39:55;;;;;;;0.00;0.00;;;;;;;;;;5062891;28;20204;-68
2022/06/17 07:42:22;;;;;;;0.00;0.00;;;;;;;;;;5067703;28;20308;-68
2022/06/17 07:44:49;;;;;;;0.00;0.00;;;;;;;;;;5062641;28;20406;-67
2022/06/17 07:47:18;;;;;;;0.00;0.00;;;;;;;;;;5067553;28;20265;-68
2022/06/17 07:49:44;;;;;;;0.00;0.00;;;;;;;;;;5062442;28;20221;-68
2022/06/17 07:52:11;;;;;;;0.10;0.10;;;;;;;;;;5067751;28;20301;-67
2022/06/17 07:54:37;;;;;;;0.00;0.00;;;;;;;;;;5062805;28;20254;-68
2022/06/17 07:57:04;;;;;;;0.00;0.00;;;;;;;;;;5067346;28;20264;-67
2022/06/17 07:59:31;;;;;;;0.00;0.00;;;;;;;;;;5062639;28;20210;-67
2022/06/17 08:01:57;;;;;;;0.00;0.00;;;;;;;;;;5066485;28;20587;-68
2022/06/17 08:04:25;;;;;;;0.00;0.00;;;;;;;;;;5063262;28;20227;-67
2022/06/17 08:06:51;;;;;;;0.00;0.00;;;;;;;;;;5065460;28;20248;-68
2022/06/17 08:09:18;;;;;;;0.00;0.00;;;;;;;;;;5064073;28;20199;-69
2022/06/17 08:11:45;;;;;;;0.05;0.05;;;;;;;;;;5065069;28;20243;-68
2022/06/17 08:14:11;;;;;;;0.03;0.03;;;;;;;;;;5065190;28;20247;-68
2022/06/17 08:16:38;;;;;;;0.03;0.03;;;;;;;;;;5064046;28;20244;-70
2022/06/17 08:19:07;;;;;;;0.10;0.10;;;;;;;;;;5066009;28;20405;-69
2022/06/17 08:21:35;;;;;;;0.10;0.10;;;;;;;;;;5063401;28;20461;-69
2022/06/17 08:24:02;;;;;;;0.00;0.00;;;;;;;;;;5066015;28;20531;-70
2022/06/17 08:26:28;;;;;;;0.00;0.00;;;;;;;;;;5062351;28;20241;-68
2022/06/17 08:28:54;;;;;;;0.00;0.00;;;;;;;;;;5069618;28;20232;-69
2022/06/17 08:31:21;;;;;;;0.05;0.05;;;;;;;;;;5065436;28;20313;-70
2022/06/17 08:33:47;;;;;;;0.00;0.00;;;;;;;;;;5071279;28;20205;-69
2022/06/17 08:36:15;;;;;;;0.00;0.00;;;;;;;;;;5064358;28;20254;-67
2022/06/17 08:38:46;;;;;;;0.00;0.00;;;;;;;;;;5072202;28;20218;-69
2022/06/17 08:41:19;;;;;;;0.00;0.00;;;;;;;;;;5064355;28;20404;-67
2022/06/17 08:43:53;;;;;;;0.00;0.00;;;;;;;;;;5071417;28;20213;-67
2022/06/17 08:46:26;;;;;;;0.00;0.00;;;;;;;;;;5065048;28;20455;-68
2022/06/17 08:49:01;;;;;;;0.10;0.10;;;;;;;;;;5070481;28;20256;-66
2022/06/17 08:51:34;;;;;;;0.00;0.00;;;;;;;;;;5065773;28;20297;-68
2022/06/17 08:54:10;;;;;;;0.10;0.10;;;;;;;;;;5069123;28;20226;-67
2022/06/17 08:56:39;;;;;;;0.00;0.00;;;;;;;;;;5066528;28;20242;-65
2022/06/17 08:59:13;;;;;;;0.00;0.00;;;;;;;;;;5068084;28;20206;-66
2022/06/17 09:01:43;;;;;;;0.10;0.10;;;;;;;;;;5066906;28;20253;-64
2022/06/17 09:04:25;;;;;;;0.00;0.00;;;;;;;;;;5067982;28;20439;-66
2022/06/17 09:06:58;;;;;;;0.00;0.00;;;;;;;;;;5055522;28;20304;-64
2022/06/17 09:09:45;;;;;;;0.10;0.10;;;;;;;;;;5066067;28;20206;-64
2022/06/17 09:12:16;;;;;;;0.00;0.00;;;;;;;;;;5066738;28;20259;-65
2022/06/17 09:14:46;;;;;;;0.00;0.00;;;;;;;;;;5065144;28;20348;-64
2022/06/17 09:17:17;;;;;;;0.00;0.00;;;;;;;;;;5069820;28;20619;-66
2022/06/17 09:19:45;;;;;;;0.10;0.10;;;;;;;;;;5064917;28;20283;-64
2022/06/17 09:22:15;;;;;;;0.00;0.00;;;;;;;;;;5070155;28;20346;-65
2022/06/17 09:24:42;;;;;;;0.00;0.00;;;;;;;;;;5064861;28;20252;-65
2022/06/17 09:27:09;;;;;;;0.00;0.00;;;;;;;;;;5069952;28;20300;-66
2022/06/17 09:29:41;;;;;;;0.10;0.10;;;;;;;;;;5064842;28;20303;-65
2022/06/17 09:32:11;;;;;;;0.10;0.10;;;;;;;;;;5070109;28;20233;-65
2022/06/17 09:34:42;;;;;;;0.00;0.00;;;;;;;;;;5064930;28;20531;-65
2022/06/17 09:37:12;;;;;;;0.00;0.00;;;;;;;;;;5069507;28;20242;-65
2022/06/17 09:39:42;;;;;;;0.00;0.00;;;;;;;;;;5063962;28;20206;-64
2022/06/17 09:42:11;;;;;;;0.00;0.00;;;;;;;;;;5069837;28;20249;-66
2022/06/17 09:44:41;;;;;;;0.00;0.00;;;;;;;;;;5064479;28;20426;-66
2022/06/17 09:47:10;;;;;;;0.00;0.00;;;;;;;;;;5069570;28;20443;-65
2022/06/17 09:49:38;;;;;;;0.00;0.00;;;;;;;;;;5064113;28;20207;-66
2022/06/17 09:52:06;;;;;;;0.00;0.00;;;;;;;;;;5069286;28;20299;-64
2022/06/17 09:54:35;;;;;;;0.00;0.00;;;;;;;;;;5064492;28;20219;-65
2022/06/17 09:57:05;;;;;;;0.00;0.00;;;;;;;;;;5068707;28;20242;-65
2022/06/17 09:59:35;;;;;;;0.00;0.00;;;;;;;;;;5064150;28;20262;-63
2022/06/17 10:02:10;;;;;;;0.00;0.00;;;;;;;;;;5068759;28;20355;-65
2022/06/17 10:04:37;;;;;;;0.00;0.00;;;;;;;;;;5064036;28;20210;-65
2022/06/17 10:07:07;;;;;;;0.00;0.00;;;;;;;;;;5069017;28;20422;-66
2022/06/17 10:09:41;;;;;;;0.00;0.00;;;;;;;;;;5064461;28;20235;-65
2022/06/17 10:12:12;;;;;;;0.00;0.00;;;;;;;;;;5069253;28;20235;-66
2022/06/17 10:14:50;;;;;;;0.10;0.10;;;;;;;;;;5064067;28;20379;-65
2022/06/17 10:20:12;;;;;;;0.00;0.00;;;;;;;;;;5054532;28;20275;-64
2022/06/17 10:22:45;;;;;;;0.00;0.00;;;;;;;;;;5078576;28;20258;-65
2022/06/17 10:25:19;;;;;;;0.00;0.00;;;;;;;;;;5054923;28;20211;-65
2022/06/17 10:27:53;;;;;;;0.00;0.00;;;;;;;;;;5077154;28;20255;-64
2022/06/17 10:30:22;;;;;;;0.00;0.00;;;;;;;;;;5055853;28;20274;-64
2022/06/17 10:32:51;;;;;;;0.00;0.00;;;;;;;;;;5077008;28;20225;-65
2022/06/17 10:35:21;;;;;;;0.00;0.00;;;;;;;;;;5055146;28;20246;-65
2022/06/17 10:37:48;;;;;;;0.00;0.00;;;;;;;;;;5076635;28;20240;-65
2022/06/17 10:40:17;;;;;;;0.00;0.00;;;;;;;;;;5054890;28;20204;-65
2022/06/17 10:42:46;;;;;;;0.00;0.00;;;;;;;;;;5077007;28;20287;-66
2022/06/17 10:45:14;;;;;;;0.00;0.00;;;;;;;;;;5054344;28;20436;-65
2022/06/17 10:47:42;;;;;;;0.00;0.00;;;;;;;;;;5077218;28;20192;-64
2022/06/17 10:50:17;;;;;;;0.00;0.00;;;;;;;;;;5053598;28;20208;-66
2022/06/17 10:52:46;;;;;;;0.00;0.00;;;;;;;;;;5076980;28;20289;-65
2022/06/17 10:55:16;;;;;;;0.00;0.00;;;;;;;;;;5053819;28;20220;-66
2022/06/17 10:58:02;;;;;;;0.00;0.00;;;;;;;;;;5077373;28;20351;-64
2022/06/17 11:00:32;;;;;;;0.00;0.00;;;;;;;;;;5056328;28;20254;-65
2022/06/17 11:02:58;;;;;;;0.00;0.00;;;;;;;;;;5075754;28;20255;-65
2022/06/17 11:05:35;;;;;;;0.00;0.00;;;;;;;;;;5056603;28;20248;-64
2022/06/17 11:08:01;;;;;;;0.00;0.00;;;;;;;;;;5075495;28;20208;-65
2022/06/17 11:10:29;;;;;;;0.00;0.00;;;;;;;;;;5056916;28;20481;-65
2022/06/17 11:12:57;;;;;;;0.00;0.00;;;;;;;;;;5075863;28;20228;-64
2022/06/17 11:15:25;;;;;;;0.00;0.00;;;;;;;;;;5056164;28;20257;-69
2022/06/17 11:17:55;;;;;;;0.00;0.00;;;;;;;;;;5076610;28;20228;-65
2022/06/17 11:20:25;;;;;;;0.00;0.00;;;;;;;;;;5063964;28;20230;-65
2022/06/17 11:22:54;;;;;;;0.00;0.00;;;;;;;;;;5068843;28;20238;-66
2022/06/17 11:25:23;;;;;;;0.00;0.00;;;;;;;;;;5063420;28;20200;-67
2022/06/17 11:27:53;;;;;;;0.00;0.00;;;;;;;;;;5068110;28;20353;-65
2022/06/17 11:30:22;;;;;;;0.00;0.00;;;;;;;;;;5054857;28;20310;-65
2022/06/17 11:32:49;;;;;;;0.00;0.00;;;;;;;;;;5075572;28;20216;-65
2022/06/17 11:35:26;;;;;;;0.00;0.00;;;;;;;;;;5053764;28;20208;-64
2022/06/17 11:37:52;;;;;;;0.00;0.00;;;;;;;;;;5076019;28;20237;-64
2022/06/17 11:40:21;;;;;;;0.00;0.00;;;;;;;;;;5054428;28;20231;-66
2022/06/17 11:42:49;;;;;;;0.00;0.00;;;;;;;;;;5076200;28;20242;-65
2022/06/17 11:45:17;;;;;;;0.00;0.00;;;;;;;;;;5054215;28;20368;-64
2022/06/17 11:47:46;;;;;;;0.00;0.00;;;;;;;;;;5076199;28;20495;-64
2022/06/17 11:50:14;;;;;;;0.00;0.00;;;;;;;;;;5053756;28;20438;-64
2022/06/17 11:52:42;;;;;;;0.00;0.00;;;;;;;;;;5076870;28;20407;-65
2022/06/17 11:55:09;;;;;;;0.00;0.00;;;;;;;;;;5052695;28;20223;-65
2022/06/17 11:57:37;;;;;;;0.00;0.00;;;;;;;;;;5077304;28;20250;-65
2022/06/17 12:00:05;;;;;;;0.00;0.00;;;;;;;;;;5062191;28;20595;-66
2022/06/17 12:02:32;;;;;;;0.00;0.00;;;;;;;;;;5068307;28;20258;-65
2022/06/17 12:05:06;;;;;;;0.00;0.00;;;;;;;;;;5066920;28;20234;-66
2022/06/17 12:07:36;;;;;;;0.00;0.00;;;;;;;;;;5038473;28;20515;-65
2022/06/17 12:10:12;;;;;;;0.00;0.00;;;;;;;;;;5066448;28;20275;-67
2022/06/17 12:12:39;;;;;;;0.00;0.00;;;;;;;;;;5063384;28;20273;-65
2022/06/17 12:15:12;;;;;;;0.00;0.00;;;;;;;;;;5057007;28;20204;-65
2022/06/17 12:17:39;;;;;;;0.00;0.00;;;;;;;;;;5045399;28;20220;-64
2022/06/17 12:20:11;;;;;;;0.00;0.00;;;;;;;;;;5039661;28;20231;-65
2022/06/17 12:22:40;;;;;;;0.00;0.00;;;;;;;;;;5060526;28;20224;-65
2022/06/17 12:25:15;;;;;;;0.00;0.00;;;;;;;;;;5037690;28;20219;-65
2022/06/17 12:27:43;;;;;;;0.00;0.00;;;;;;;;;;5046175;28;20362;-65
2022/06/17 12:30:11;;;;;;;0.00;0.00;;;;;;;;;;5036525;28;20208;-64
2022/06/17 12:32:41;;;;;;;0.00;0.00;;;;;;;;;;5060426;28;20434;-66
2022/06/17 12:35:12;;;;;;;0.00;0.00;;;;;;;;;;5036284;28;20223;-66
2022/06/17 12:37:43;;;;;;;0.00;0.00;;;;;;;;;;5060672;28;20267;-64
2022/06/17 12:40:17;;;;;;;0.00;0.00;;;;;;;;;;5036498;28;20216;-65
2022/06/17 12:42:48;;;;;;;0.10;0.10;;;;;;;;;;5060005;28;20189;-65
2022/06/17 12:45:18;;;;;;;0.00;0.00;;;;;;;;;;5037107;28;20292;-65
2022/06/17 12:47:54;;;;;;;0.00;0.00;;;;;;;;;;5059270;28;20224;-65
2022/06/17 12:53:22;;;;;;;0.00;0.00;;;;;;;;;;5031363;28;20247;-65
2022/06/17 12:56:00;;;;;;;0.00;0.00;;;;;;;;;;5040404;28;20266;-64
2022/06/17 12:58:32;;;;;;;0.10;0.10;;;;;;;;;;5052997;28;20259;-66
2022/06/17 13:01:00;;;;;;;0.00;0.00;;;;;;;;;;5040789;28;20246;-65
2022/06/17 13:03:46;;;;;;;0.00;0.00;;;;;;;;;;5052449;28;20527;-66
2022/06/17 13:06:17;;;;;;;0.00;0.00;;;;;;;;;;5042500;28;20239;-65
2022/06/17 13:08:49;;;;;;;0.05;0.05;;;;;;;;;;5050308;28;20205;-65
2022/06/17 13:11:21;;;;;;;0.10;0.10;;;;;;;;;;5042967;28;20240;-65
2022/06/17 13:14:02;;;;;;;0.00;0.00;;;;;;;;;;5049278;28;20279;-65
2022/06/17 13:16:31;;;;;;;0.00;0.00;;;;;;;;;;5044762;28;20254;-66
2022/06/17 13:19:01;;;;;;;0.00;0.00;;;;;;;;;;5048329;28;20277;-65
2022/06/17 13:21:32;;;;;;;0.00;0.00;;;;;;;;;;5044460;28;20266;-67
2022/06/17 13:24:02;;;;;;;0.00;0.00;;;;;;;;;;5048140;28;20396;-66
2022/06/17 13:26:36;;;;;;;0.00;0.00;;;;;;;;;;5044023;28;20334;-66
2022/06/17 13:29:06;;;;;;;0.00;0.00;;;;;;;;;;5047159;28;20271;-66
2022/06/17 13:31:37;;;;;;;0.00;0.00;;;;;;;;;;5044595;28;20243;-64
2022/06/17 13:34:05;;;;;;;0.00;0.00;;;;;;;;;;5047999;28;20387;-64
2022/06/17 13:36:34;;;;;;;0.00;0.00;;;;;;;;;;5045248;28;20457;-64
2022/06/17 13:39:04;;;;;;;0.00;0.00;;;;;;;;;;5048316;28;20228;-65
2022/06/17 13:41:35;;;;;;;0.00;0.00;;;;;;;;;;5044883;28;20251;-64
2022/06/17 13:44:15;;;;;;;0.00;0.00;;;;;;;;;;5048292;28;20280;-65
2022/06/17 13:46:46;;;;;;;0.00;0.00;;;;;;;;;;5046688;28;20246;-65
2022/06/17 13:49:17;;;;;;;0.00;0.00;;;;;;;;;;5046765;28;20207;-65
2022/06/17 13:51:49;;;;;;;0.00;0.00;;;;;;;;;;5046446;28;20266;-66
2022/06/17 13:54:21;;;;;;;0.00;0.00;;;;;;;;;;5046109;28;20211;-65
2022/06/17 13:56:52;;;;;;;0.00;0.00;;;;;;;;;;5007405;28;1157595;-66
2022/06/17 13:59:30;;;;;;;0.00;0.00;;;;;;;;;;5047181;28;20284;-65
2022/06/17 14:02:08;;;;;;;0.00;0.00;;;;;;;;;;5049042;28;20302;-63
2022/06/17 14:04:55;;;;;;;0.00;0.00;;;;;;;;;;5045344;28;20204;-65
2022/06/17 14:07:22;;;;;;;0.00;0.00;;;;;;;;;;5049910;28;20236;-64
2022/06/17 14:09:48;;;;;;;0.00;0.00;;;;;;;;;;5044959;28;20373;-65
2022/06/17 14:12:33;;;;;;;0.00;0.00;;;;;;;;;;5050052;28;20259;-64
2022/06/17 14:15:06;;;;;;;0.00;0.00;;;;;;;;;;5044989;28;20213;-64
2022/06/17 14:17:33;;;;;;;0.10;0.10;;;;;;;;;;5036556;28;20215;-65
2022/06/17 14:20:15;;;;;;;0.00;0.00;;;;;;;;;;5064827;28;20300;-64
2022/06/17 14:22:59;;;;;;;0.00;0.00;;;;;;;;;;5064593;28;20329;-64
2022/06/17 14:25:28;;;;;;;0.00;0.00;;;;;;;;;;5056386;28;20295;-65
2022/06/17 14:27:56;;;;;;;0.00;0.00;;;;;;;;;;5076796;28;20250;-64
2022/06/17 14:30:49;;;;;;;0.00;0.00;;;;;;;;;;5056615;28;20215;-64
2022/06/17 14:33:37;;;;;;;0.00;0.00;;;;;;;;;;5026926;28;20479;-65
2022/06/17 14:36:08;;;;;;;0.00;0.00;;;;;;;;;;5061015;28;20267;-65
2022/06/17 14:38:36;;;;;;;0.10;0.10;;;;;;;;;;5071163;28;20262;-64
2022/06/17 14:43:54;;;;;;;0.00;0.00;;;;;;;;;;5068707;28;20234;-65
2022/06/17 14:46:20;;;;;;;0.00;0.00;;;;;;;;;;5063474;28;20413;-65
2022/06/17 14:48:49;;;;;;;0.00;0.00;;;;;;;;;;5069478;28;20511;-66
2022/06/17 14:51:37;;;;;;;0.00;0.00;;;;;;;;;;5061992;28;20250;-66
2022/06/17 14:54:18;;;;;;;0.00;0.00;;;;;;;;;;5067286;28;20249;-63
2022/06/17 14:56:46;;;;;;;0.00;0.00;;;;;;;;;;5065699;28;20283;-74
2022/06/17 14:59:15;;;;;;;0.00;0.00;;;;;;;;;;5065473;28;20204;-75
2022/06/17 15:01:44;;;;;;;0.00;0.00;;;;;;;;;;5064848;28;20634;-76
2022/06/17 15:04:14;;;;;;;0.00;0.00;;;;;;;;;;5065560;28;20408;-76
2022/06/17 15:06:44;;;;;;;0.00;0.00;;;;;;;;;;5064551;28;20589;-76
2022/06/17 15:09:22;;;;;;;0.00;0.00;;;;;;;;;;5065363;28;20286;-73
2022/06/17 15:11:53;;;;;;;0.00;0.00;;;;;;;;;;5065404;28;20242;-73
2022/06/17 15:14:20;;;;;;;0.00;0.00;;;;;;;;;;5064450;28;20234;-73